Time;durP1;ratioP1;P1;durP2;ratioP2;P2;SDS_P1;SDS_P2;PMS_P1;PMS_P2;Temp;Humidity;BMP_temperature;BMP_pressure;BME280_temperature;BME280_humidity;BME280_pressure;Samples;Min_cycle;Max_cycle;Signal;HPM_P1;HPM_P2
2021/09/16 00:03:35;;;;;;;35.50;24.40;;;;;;;15.85;66.43;99932.16;111870;1221;107150;-75
2021/09/16 00:07:18;;;;;;;33.90;22.80;;;;;;;15.81;66.39;99925.73;111495;1219;108557;-74
2021/09/16 00:15:59;;;;;;;30.10;22.10;;;;;;;15.80;66.53;99920.67;110849;1225;94086;-74
2021/09/16 00:19:51;;;;;;;;;;;;;;;;;;;;;
2021/09/16 00:23:44;;;;;;;;;;;;;;;;;;;;;
2021/09/16 00:28:34;;;;;;;24.40;19.20;;;;;;;15.84;66.74;99906.59;111924;1209;636076;-74
2021/09/16 00:32:42;;;;;;;29.30;19.60;;;;;;;15.82;66.54;99908.68;113115;1200;93836;-74
2021/09/16 00:36:52;;;;;;;27.60;19.80;;;;;;;15.82;66.63;99902.21;112876;1201;136779;-74
2021/09/16 00:41:02;;;;;;;24.40;19.00;;;;;;;15.80;66.61;99899.83;112482;1208;106642;-74
2021/09/16 00:45:10;;;;;;;21.70;17.40;;;;;;;15.82;66.61;99898.52;112307;1210;106226;-75
2021/09/16 00:57:56;;;;;;;24.90;18.10;;;;;;;15.84;66.40;99885.90;111845;1219;94051;-74
2021/09/16 01:09:35;;;;;;;22.60;18.10;;;;;;;15.91;66.28;99877.41;111807;1211;656785;-74
2021/09/16 01:13:41;;;;;;;;;;;;;;;;;;;;;
2021/09/16 01:26:20;;;;;;;;;;;;;;;;;;;;;
2021/09/16 01:30:25;;;;;;;20.80;17.10;;;;;;;15.90;66.32;99867.52;111928;1209;635583;-74
2021/09/16 01:34:10;;;;;;;23.10;17.40;;;;;;;15.87;66.40;99863.30;112941;1201;136748;-75
2021/09/16 01:42:29;;;;;;;20.00;16.00;;;;;;;15.81;66.40;99855.77;112299;1209;108264;-74
2021/09/16 01:46:47;;;;;;;;;;;;;;;;;;;;;
2021/09/16 01:50:48;;;;;;;;;;;;;;;;;;;;;
2021/09/16 02:03:30;;;;;;;21.40;16.60;;;;;;;15.78;66.47;99841.41;110778;1226;137168;-74
2021/09/16 02:07:03;;;;;;;;;;;;;;;;;;;;;
2021/09/16 02:11:02;;;;;;;22.10;16.90;;;;;;;15.82;66.65;99839.45;111893;1211;635060;-74
2021/09/16 02:15:13;;;;;;;24.00;18.30;;;;;;;15.80;66.62;99838.12;113118;1200;137049;-74
2021/09/16 02:19:22;;;;;;;23.70;18.00;;;;;;;15.80;66.77;99824.98;112889;1203;93897;-74
2021/09/16 02:23:30;;;;;;;26.40;19.40;;;;;;;15.80;66.66;99821.49;112774;1206;108078;-75
2021/09/16 02:32:10;;;;;;;22.20;18.00;;;;;;;15.77;66.84;99816.77;112026;1215;108484;-74
2021/09/16 02:39:47;;;;;;;;;;;;;;;;;;;;;
2021/09/16 02:47:45;;;;;;;22.90;18.50;;;;;;;15.72;67.26;99796.90;111844;1212;635843;-74
2021/09/16 02:55:58;;;;;;;24.50;18.20;;;;;;;15.66;67.47;99790.23;112991;1201;94025;-75
2021/09/16 03:00:07;;;;;;;25.80;19.90;;;;;;;15.68;67.44;99793.11;112680;1204;136322;-75
2021/09/16 03:04:16;;;;;;;25.20;17.90;;;;;;;15.67;67.44;99789.83;112215;1209;136962;-74
2021/09/16 03:17:05;;;;;;;21.70;17.20;;;;;;;15.58;67.72;99787.86;112075;1212;137483;-74
2021/09/16 03:24:42;;;;;;;;;;;;;;;;;;;;;
2021/09/16 03:28:41;;;;;;;;;;;;;;;;;;;;;
2021/09/16 03:33:19;;;;;;;26.30;19.30;;;;;;;15.48;68.06;99779.77;111830;1219;95005;-75
2021/09/16 03:37:24;;;;;;;22.60;17.10;;;;;;;15.44;68.17;99773.85;111613;1219;136827;-75
2021/09/16 03:41:30;;;;;;;25.60;18.70;;;;;;;15.42;68.33;99768.86;111623;1218;137647;-75
2021/09/16 03:53:21;;;;;;;;;;;;;;;;;;;;;
2021/09/16 03:57:05;;;;;;;26.10;17.50;;;;;;;15.31;69.12;99756.21;112113;1208;634788;-76
2021/09/16 04:01:14;;;;;;;26.80;19.00;;;;;;;15.27;69.09;99751.59;112796;1203;137183;-74
2021/09/16 04:09:33;;;;;;;23.80;17.80;;;;;;;15.23;69.30;99749.11;112317;1209;106457;-74
2021/09/16 04:14:09;;;;;;;28.40;18.40;;;;;;;15.24;69.29;99748.04;112194;1213;107069;-74
2021/09/16 04:18:30;;;;;;;25.30;17.60;;;;;;;15.23;69.34;99751.60;112003;1213;137081;-74
2021/09/16 04:26:40;;;;;;;27.30;18.50;;;;;;;15.25;69.68;99752.91;111887;1219;94146;-74
2021/09/16 04:38:18;;;;;;;25.50;18.10;;;;;;;15.25;70.05;99746.60;111850;1211;656136;-74
2021/09/16 04:42:52;;;;;;;24.40;18.00;;;;;;;15.22;70.01;99740.66;112936;1201;137484;-74
2021/09/16 04:59:38;;;;;;;24.90;17.90;;;;;;;15.26;70.36;99752.30;112010;1217;109309;-74
2021/09/16 05:03:17;;;;;;;;;;;;;;;;;;;;;
2021/09/16 05:11:15;;;;;;;24.10;17.80;;;;;;;15.31;70.69;99745.20;111943;1209;636393;-74
2021/09/16 05:15:15;;;;;;;29.00;18.90;;;;;;;15.32;70.63;99748.30;113100;1200;137036;-75
2021/09/16 05:19:24;;;;;;;25.60;18.20;;;;;;;15.33;70.78;99749.25;113043;1200;137039;-75
2021/09/16 05:27:41;;;;;;;28.30;20.00;;;;;;;15.34;71.50;99742.92;112382;1206;137105;-75
2021/09/16 05:31:53;;;;;;;27.00;19.40;;;;;;;15.32;71.64;99741.27;112414;1206;137514;-74
2021/09/16 05:36:27;;;;;;;26.00;20.70;;;;;;;15.34;71.69;99741.85;112264;1209;93962;-74
2021/09/16 05:40:13;;;;;;;24.60;18.40;;;;;;;15.36;71.55;99749.59;111865;1219;94457;-74
2021/09/16 05:44:18;;;;;;;27.40;20.50;;;;;;;15.39;71.88;99744.88;111744;1219;137283;-75
2021/09/16 05:47:59;;;;;;;;;;;;;;;;;;;;;
2021/09/16 05:52:28;;;;;;;;;;;;;;;;;;;;;
2021/09/16 05:56:39;;;;;;;30.40;20.20;;;;;;;15.40;72.34;99724.15;112840;1203;137009;-74
2021/09/16 06:00:38;;;;;;;;;;;;;;;;;;;;;
2021/09/16 06:18:05;;;;;;;28.70;19.90;;;;;;;15.54;73.53;99684.41;111939;1216;95330;-75
2021/09/16 06:25:31;;;;;;;27.00;20.10;;;;;;;15.73;73.15;99695.87;111338;1222;108882;-74
2021/09/16 06:30:04;;;;;;;26.80;19.50;;;;;;;15.86;72.69;99693.88;111440;1222;108143;-75
2021/09/16 06:34:03;;;;;;;22.70;19.40;;;;;;;15.93;72.27;99710.20;111237;1221;137637;-75
2021/09/16 06:38:09;;;;;;;27.60;19.70;;;;;;;15.88;72.38;99717.17;111596;1220;93881;-75
2021/09/16 06:45:50;;;;;;;;;;;;;;;;;;;;;
2021/09/16 06:50:47;;;;;;;29.00;21.50;;;;;;;15.89;72.72;99728.02;111971;1209;637992;-74
2021/09/16 06:58:39;;;;;;;26.60;19.70;;;;;;;15.85;72.95;99732.12;112618;1204;137189;-74
2021/09/16 07:11:26;;;;;;;33.00;22.00;;;;;;;15.67;73.87;99736.34;112013;1213;137794;-75
2021/09/16 07:15:32;;;;;;;30.50;21.80;;;;;;;15.61;74.00;99741.61;112056;1213;93893;-74
2021/09/16 07:35:27;;;;;;;31.30;22.00;;;;;;;15.70;74.94;99704.27;113059;1201;136804;-74
2021/09/16 07:39:25;;;;;;;;;;;;;;;;;;;;;
2021/09/16 07:43:35;;;;;;;38.30;23.60;;;;;;;16.00;74.59;99708.92;112942;1201;136829;-74
2021/09/16 07:48:23;;;;;;;33.10;21.90;;;;;;;16.10;74.43;99703.68;112346;1207;137055;-74
2021/09/16 07:52:29;;;;;;;33.20;23.20;;;;;;;16.27;74.37;99707.13;112032;1214;109614;-74
2021/09/16 08:04:02;;;;;;;34.80;25.00;;;;;;;16.90;73.64;99695.84;111780;1211;657165;-74
2021/09/16 08:08:13;;;;;;;35.30;24.40;;;;;;;17.25;72.67;99696.86;112912;1203;93842;-74
2021/09/16 08:12:20;;;;;;;;;;;;;;;;;;;;;
2021/09/16 08:20:27;;;;;;;32.40;23.70;;;;;;;18.05;70.32;99703.70;111894;1211;637481;-74
2021/09/16 08:24:35;;;;;;;26.50;20.50;;;;;;;18.14;69.92;99708.67;112874;1203;93929;-74
2021/09/16 08:36:59;;;;;;;28.00;22.50;;;;;;;18.48;68.74;99710.43;112847;1204;106314;-74
2021/09/16 08:40:26;;;;;;;31.90;23.30;;;;;;;18.58;68.80;99712.48;112449;1208;108895;-75
2021/09/16 08:44:34;;;;;;;29.30;23.80;;;;;;;18.69;68.15;99710.14;112282;1209;93881;-75
2021/09/16 08:48:49;;;;;;;32.20;23.40;;;;;;;18.73;68.03;99703.18;112334;1209;94016;-75
2021/09/16 08:52:54;;;;;;;29.70;22.40;;;;;;;18.83;68.06;99696.47;112085;1215;107101;-75
2021/09/16 08:56:40;;;;;;;27.00;22.50;;;;;;;18.98;67.85;99692.42;111935;1217;108019;-75
2021/09/16 09:04:17;;;;;;;;;;;;;;;;;;;;;
2021/09/16 09:08:50;;;;;;;27.60;23.00;;;;;;;19.02;67.57;99686.33;111996;1217;94924;-74
2021/09/16 09:12:55;;;;;;;33.50;25.40;;;;;;;18.97;67.61;99686.87;111595;1221;110331;-74
2021/09/16 09:16:18;;;;;;;;;;;;;;;;;;;;;
2021/09/16 09:20:56;;;;;;;35.30;23.70;;;;;;;18.82;68.22;99679.22;111613;1218;109557;-73
2021/09/16 09:24:26;;;;;;;;;;;;;;;;;;;;;
2021/09/16 09:27:43;;;;;;;;;;;;;;;;;;;;;
2021/09/16 09:35:52;;;;;;;;;;;;;;;;;;;;;
2021/09/16 09:40:30;;;;;;;33.60;23.70;;;;;;;19.90;67.16;99658.48;111648;1220;108870;-76
2021/09/16 09:43:49;;;;;;;40.90;25.10;;;;;;;20.31;65.96;99664.55;111714;1220;94926;-76
2021/09/16 09:48:22;;;;;;;31.10;24.00;;;;;;;20.51;65.46;99666.65;111925;1216;94956;-77
2021/09/16 09:52:19;;;;;;;28.30;22.50;;;;;;;20.50;64.86;99676.03;111927;1217;109202;-76
2021/09/16 10:00:07;;;;;;;28.60;23.50;;;;;;;20.65;64.56;99665.48;112011;1214;107795;-76
2021/09/16 10:03:57;;;;;;;30.60;22.80;;;;;;;20.79;64.45;99666.95;112528;1206;94973;-75
2021/09/16 10:07:23;;;;;;;;;;;;;;;;;;;;;
2021/09/16 10:11:33;;;;;;;30.00;24.40;;;;;;;20.89;64.21;99664.70;112623;1202;109535;-75
2021/09/16 10:15:42;;;;;;;36.20;25.80;;;;;;;20.90;64.05;99667.27;112970;1201;106203;-74
2021/09/16 10:23:49;;;;;;;32.00;23.60;;;;;;;20.80;64.48;99659.73;113024;1200;94907;-76
2021/09/16 10:27:54;;;;;;;;;;;;;;;;;;;;;
2021/09/16 10:32:41;;;;;;;28.90;23.00;;;;;;;21.36;63.65;99662.27;112819;1205;108059;-75
2021/09/16 10:36:15;;;;;;;24.90;20.20;;;;;;;21.69;62.85;99665.08;112275;1210;108070;-75
2021/09/16 10:40:14;;;;;;;;;;;;;;;;;;;;;
2021/09/16 10:44:37;;;;;;;;;;;;;;;;;;;;;
2021/09/16 10:48:43;;;;;;;23.60;19.80;;;;;;;21.75;62.30;99668.50;112254;1209;95261;-74
2021/09/16 10:56:56;;;;;;;;;;;;;;;;;;;;;
2021/09/16 11:01:11;;;;;;;24.20;20.10;;;;;;;21.75;62.36;99679.45;114401;1190;93882;-74
2021/09/16 11:05:35;;;;;;;22.30;19.20;;;;;;;21.82;62.21;99678.98;114002;1192;108025;-74
2021/09/16 11:10:06;;;;;;;23.40;19.60;;;;;;;21.88;62.24;99675.62;114022;1193;106205;-75
2021/09/16 11:14:13;;;;;;;26.80;18.50;;;;;;;21.90;62.17;99672.04;113145;1197;107606;-74
2021/09/16 11:18:04;;;;;;;;;;;;;;;;;;;;;
2021/09/16 11:21:55;;;;;;;;;;;;;;;;;;;;;
2021/09/16 11:26:36;;;;;;;24.10;20.60;;;;;;;21.67;62.06;99667.53;111924;1209;636527;-75
2021/09/16 11:30:34;;;;;;;;;;;;;;;;;;;;;
2021/09/16 11:34:43;;;;;;;27.90;21.30;;;;;;;21.33;63.32;99657.94;112342;1207;93970;-75
2021/09/16 11:42:49;;;;;;;28.90;23.80;;;;;;;21.42;63.38;99650.23;111907;1209;638138;-75
2021/09/16 11:46:58;;;;;;;27.10;22.60;;;;;;;21.34;63.71;99646.70;113088;1199;94022;-75
2021/09/16 11:51:04;;;;;;;;;;;;;;;;;;;;;
2021/09/16 11:55:02;;;;;;;;;;;;;;;;;;;;;
2021/09/16 11:58:39;;;;;;;30.40;22.50;;;;;;;21.61;63.96;99639.45;112236;1209;107228;-76
2021/09/16 12:02:36;;;;;;;;;;;;;;;;;;;;;
2021/09/16 12:06:34;;;;;;;28.60;21.10;;;;;;;22.43;63.49;99627.19;112083;1212;94710;-75
2021/09/16 12:10:02;;;;;;;25.80;19.20;;;;;;;23.11;62.82;99613.71;112107;1212;94087;-75
2021/09/16 12:13:35;;;;;;;27.40;20.60;;;;;;;23.91;61.86;99611.70;111861;1218;108241;-74
2021/09/16 12:18:14;;;;;;;27.40;20.20;;;;;;;24.68;60.73;99601.95;111842;1211;638369;-75
2021/09/16 12:22:18;;;;;;;;;;;;;;;;;;;;;
2021/09/16 12:26:34;;;;;;;22.50;19.20;;;;;;;25.42;57.57;99599.86;113161;1198;93973;-76
2021/09/16 12:30:41;;;;;;;25.60;18.90;;;;;;;25.27;56.33;99597.52;113184;1200;108445;-75
2021/09/16 12:34:24;;;;;;;;;;;;;;;;;;;;;
2021/09/16 12:37:52;;;;;;;20.30;14.70;;;;;;;25.11;56.19;99588.68;113056;1200;106574;-74
2021/09/16 12:41:44;;;;;;;16.40;14.50;;;;;;;25.04;55.84;99583.73;113159;1200;93858;-75
2021/09/16 12:45:16;;;;;;;17.90;14.80;;;;;;;24.99;55.83;99584.91;112584;1205;94065;-75
2021/09/16 12:48:47;;;;;;;20.00;16.30;;;;;;;24.90;55.61;99589.53;112606;1205;108115;-75
2021/09/16 12:53:06;;;;;;;20.10;17.30;;;;;;;24.76;55.76;99587.81;112642;1206;106137;-75
2021/09/16 12:56:49;;;;;;;18.20;16.20;;;;;;;24.62;55.82;99586.19;113191;1200;107541;-76
2021/09/16 13:00:39;;;;;;;17.90;16.00;;;;;;;24.45;55.98;99580.61;112402;1206;94914;-76
2021/09/16 13:05:31;;;;;;;17.40;15.60;;;;;;;24.34;56.18;99580.54;112496;1206;95144;-75
2021/09/16 13:08:43;;;;;;;17.60;14.50;;;;;;;24.27;56.54;99580.33;112434;1206;110229;-75
2021/09/16 13:12:37;;;;;;;16.30;13.90;;;;;;;24.25;56.46;99575.15;112529;1206;107735;-75
2021/09/16 13:16:24;;;;;;;;;;;;;;;;;;;;;
2021/09/16 13:20:41;;;;;;;;;;;;;;;;;;;;;
2021/09/16 13:24:20;;;;;;;;;;;;;;;;;;;;;
2021/09/16 13:27:56;;;;;;;20.40;15.40;;;;;;;23.66;57.34;99567.17;112059;1212;108635;-75
2021/09/16 13:31:52;;;;;;;;;;;;;;;;;;;;;
2021/09/16 13:35:20;;;;;;;;;;;;;;;;;;;;;
2021/09/16 13:39:35;;;;;;;20.60;15.20;;;;;;;23.09;58.24;99571.42;112421;1208;94801;-75
2021/09/16 13:43:11;;;;;;;;;;;;;;;;;;;;;
2021/09/16 13:46:51;;;;;;;21.80;16.50;;;;;;;22.72;59.25;99581.95;112083;1212;110361;-75
2021/09/16 13:51:36;;;;;;;23.00;17.00;;;;;;;22.58;60.20;99579.31;112161;1212;108336;-75
2021/09/16 13:59:48;;;;;;;25.70;19.50;;;;;;;22.23;62.14;99588.04;111966;1216;95089;-74
2021/09/16 14:03:44;;;;;;;24.60;19.30;;;;;;;21.93;63.17;99603.48;112114;1212;95014;-76
2021/09/16 14:07:50;;;;;;;27.20;22.00;;;;;;;21.57;64.90;99584.91;112121;1212;110569;-75
2021/09/16 14:11:21;;;;;;;;;;;;;;;;;;;;;
2021/09/16 14:18:50;;;;;;;25.30;21.90;;;;;;;20.59;68.69;99584.05;111993;1215;95175;-75
2021/09/16 14:22:52;;;;;;;23.60;20.20;;;;;;;20.46;69.56;99590.43;111987;1212;94970;-77
2021/09/16 14:38:50;;;;;;;;;;;;;;;;;;;;;
2021/09/16 14:43:13;;;;;;;15.20;12.10;;;;;;;19.88;72.86;99592.13;112034;1209;634828;-74
2021/09/16 14:47:22;;;;;;;15.40;11.40;;;;;;;19.77;73.36;99592.71;113204;1199;93940;-76
2021/09/16 14:51:55;;;;;;;11.80;9.90;;;;;;;19.68;73.68;99592.74;112639;1206;93871;-74
2021/09/16 15:00:08;;;;;;;9.80;8.00;;;;;;;19.65;74.30;99586.45;112133;1212;106416;-74
2021/09/16 15:12:19;;;;;;;7.30;5.70;;;;;;;19.72;74.49;99581.42;111585;1222;93925;-74
2021/09/16 15:23:56;;;;;;;;;;;;;;;;;;;;;
2021/09/16 15:28:08;;;;;;;6.80;5.90;;;;;;;19.82;74.78;99570.27;113040;1200;94036;-76
2021/09/16 15:32:17;;;;;;;7.10;5.40;;;;;;;19.86;74.69;99570.98;112792;1203;95063;-74
2021/09/16 15:36:42;;;;;;;7.50;5.40;;;;;;;19.82;74.75;99575.33;112439;1206;107849;-74
2021/09/16 15:39:45;;;;;;;6.30;5.70;;;;;;;19.75;74.94;99581.89;112100;1213;107149;-74
2021/09/16 15:47:56;;;;;;;10.70;6.00;;;;;;;19.67;75.28;99580.48;111848;1219;94003;-75
2021/09/16 15:51:41;;;;;;;7.30;6.60;;;;;;;19.62;75.49;99586.98;111946;1210;636879;-74
2021/09/16 16:03:52;;;;;;;8.80;7.90;;;;;;;19.59;76.24;99580.08;113050;1201;108143;-74
2021/09/16 16:07:53;;;;;;;;;;;;;;;;;;;;;
2021/09/16 16:12:29;;;;;;;10.00;8.40;;;;;;;19.63;76.43;99574.10;112496;1208;107522;-78
2021/09/16 16:16:00;;;;;;;;;;;;;;;;;;;;;
2021/09/16 16:24:01;;;;;;;11.10;9.20;;;;;;;19.58;77.06;99576.07;112105;1214;109038;-75
2021/09/16 16:35:43;;;;;;;;;;;;;;;;;;;;;
2021/09/16 16:39:35;;;;;;;11.30;8.30;;;;;;;19.39;78.30;99576.50;113510;1195;93914;-74
2021/09/16 16:43:12;;;;;;;;;;;;;;;19.39;78.49;99578.27;113963;1192;94009;-74
2021/09/16 16:47:22;;;;;;;9.90;7.70;;;;;;;19.35;78.53;99576.61;114377;1190;108276;-74
2021/09/16 16:51:19;;;;;;;;;;;;;;;;;;;;;
2021/09/16 16:59:23;;;;;;;;;;;;;;;;;;;;;
2021/09/16 17:03:18;;;;;;;;;;;;;;;;;;;;;
2021/09/16 17:07:54;;;;;;;4.80;3.40;;;;;;;19.03;79.19;99575.28;112479;1206;108381;-74
2021/09/16 17:12:08;;;;;;;4.20;3.80;;;;;;;19.04;79.30;99581.90;112307;1209;106397;-74
2021/09/16 17:15:39;;;;;;;;;;;;;;;;;;;;;
2021/09/16 17:28:23;;;;;;;5.60;4.20;;;;;;;18.84;79.41;99585.35;111898;1216;110331;-74
2021/09/16 17:32:12;;;;;;;7.00;4.90;;;;;;;18.82;79.61;99582.73;112046;1215;108357;-75
2021/09/16 17:36:18;;;;;;;6.70;5.00;;;;;;;18.79;79.69;99580.88;111821;1219;109860;-76
2021/09/16 17:44:24;;;;;;;7.60;5.60;;;;;;;18.74;79.80;99591.61;113997;1193;94103;-75
2021/09/16 17:48:24;;;;;;;;;;;;;;;;;;;;;
2021/09/16 17:52:34;;;;;;;6.80;6.00;;;;;;;18.66;79.90;99599.77;112947;1201;107249;-77
2021/09/16 17:56:25;;;;;;;8.10;7.20;;;;;;;18.70;80.03;99596.84;112477;1208;106217;-75
2021/09/16 18:01:04;;;;;;;8.90;7.80;;;;;;;18.72;79.58;99597.21;112432;1209;108580;-76
2021/09/16 18:04:37;;;;;;;;;;;;;;;;;;;;;
2021/09/16 18:20:53;;;;;;;11.80;9.60;;;;;;;18.78;79.72;99615.13;112955;1201;94044;-75
2021/09/16 18:28:54;;;;;;;11.30;8.70;;;;;;;18.73;79.56;99608.42;111984;1209;635920;-76
2021/09/16 18:33:03;;;;;;;15.30;10.10;;;;;;;18.76;79.60;99608.18;113099;1199;93848;-76
2021/09/16 18:37:03;;;;;;;;;;;;;;;;;;;;;
2021/09/16 18:41:00;;;;;;;10.40;9.30;;;;;;;18.75;79.59;99602.11;113057;1201;108239;-73
2021/09/16 18:44:49;;;;;;;11.80;9.40;;;;;;;18.75;79.82;99603.16;113060;1201;106491;-75
2021/09/16 18:48:58;;;;;;;12.10;10.80;;;;;;;18.69;79.51;99604.82;112955;1201;108599;-75
2021/09/16 18:52:57;;;;;;;12.70;10.10;;;;;;;18.63;79.77;99605.28;112499;1206;94390;-75
2021/09/16 18:56:57;;;;;;;;;;;;;;;;;;;;;
2021/09/16 19:04:59;;;;;;;;;;;;;;;;;;;;;
2021/09/16 19:09:15;;;;;;;14.40;11.80;;;;;;;18.54;80.27;99604.40;111563;1217;109834;-75
2021/09/16 19:20:17;;;;;;;;;;;;;;;;;;;;;
2021/09/16 19:32:47;;;;;;;;;;;;;;;18.68;80.04;99605.29;113185;1200;94028;-74
2021/09/16 19:36:55;;;;;;;17.20;13.90;;;;;;;18.63;80.16;99605.09;113116;1199;93917;-74
2021/09/16 19:41:05;;;;;;;18.80;15.70;;;;;;;18.59;80.49;99601.34;112819;1203;108426;-74
2021/09/16 19:45:13;;;;;;;16.10;13.80;;;;;;;18.59;80.47;99601.15;112449;1209;107352;-73
2021/09/16 19:52:57;;;;;;;18.90;16.90;;;;;;;18.67;80.32;99601.46;112097;1216;93836;-74
2021/09/16 20:05:23;;;;;;;20.90;18.10;;;;;;;18.68;80.42;99601.19;111923;1209;636099;-74
2021/09/16 20:09:42;;;;;;;;;;;;;;;;;;;;;
2021/09/16 20:16:54;;;;;;;;;;;;;;;18.56;80.43;99596.27;113116;1200;108171;-75
2021/09/16 20:21:02;;;;;;;22.60;17.80;;;;;;;18.55;80.29;99590.73;113096;1199;107894;-74
2021/09/16 20:25:35;;;;;;;23.90;17.90;;;;;;;18.53;80.57;99592.99;112715;1206;108370;-75
2021/09/16 20:29:32;;;;;;;19.80;16.70;;;;;;;18.47;80.43;99591.85;112422;1208;93903;-74
2021/09/16 20:33:38;;;;;;;18.60;16.50;;;;;;;18.44;80.63;99596.14;112265;1211;95705;-73
2021/09/16 20:37:43;;;;;;;19.00;16.60;;;;;;;18.53;80.83;99602.14;112038;1215;107244;-75
2021/09/16 20:41:49;;;;;;;19.00;16.90;;;;;;;18.49;80.54;99604.94;111864;1218;106694;-74
2021/09/16 20:49:41;;;;;;;21.60;17.70;;;;;;;18.49;80.64;99606.00;111690;1220;94926;-76
2021/09/16 20:53:47;;;;;;;23.30;17.80;;;;;;;18.46;80.59;99602.00;111725;1220;94853;-74
2021/09/16 21:09:38;;;;;;;19.30;16.30;;;;;;;18.40;80.81;99609.44;113346;1195;93884;-76
2021/09/16 21:13:46;;;;;;;22.90;15.90;;;;;;;18.40;80.74;99610.66;113152;1198;106106;-76
2021/09/16 21:17:55;;;;;;;19.00;14.40;;;;;;;18.38;80.87;99608.59;112850;1203;106234;-75
2021/09/16 21:22:29;;;;;;;18.50;16.10;;;;;;;18.37;81.21;99611.26;112455;1208;107597;-75
2021/09/16 21:26:50;;;;;;;17.10;15.00;;;;;;;18.37;80.92;99610.05;112281;1211;94091;-74
2021/09/16 21:30:55;;;;;;;16.20;13.40;;;;;;;18.37;81.03;99612.17;112182;1212;94053;-74
2021/09/16 21:42:25;;;;;;;17.90;14.30;;;;;;;18.37;80.89;99611.61;111918;1211;636604;-75
2021/09/16 21:46:34;;;;;;;14.10;12.30;;;;;;;18.40;80.70;99614.55;113067;1202;93998;-75
2021/09/16 21:51:08;;;;;;;15.10;13.30;;;;;;;18.39;80.94;99617.66;113183;1200;94118;-74
2021/09/16 21:54:53;;;;;;;17.20;13.10;;;;;;;18.41;80.74;99614.87;112890;1203;107339;-75
2021/09/16 22:02:47;;;;;;;13.70;12.30;;;;;;;18.43;80.74;99617.00;112213;1211;108362;-75
2021/09/16 22:07:35;;;;;;;15.30;13.50;;;;;;;18.48;80.82;99614.48;112272;1211;94060;-75
2021/09/16 22:15:47;;;;;;;13.70;12.30;;;;;;;18.46;80.40;99611.46;112052;1216;107202;-75
2021/09/16 22:24:02;;;;;;;13.80;11.70;;;;;;;18.42;80.46;99617.20;113176;1198;93959;-75
2021/09/16 22:28:11;;;;;;;14.50;12.20;;;;;;;18.35;80.38;99617.76;113146;1201;93943;-75
2021/09/16 22:32:18;;;;;;;15.50;12.40;;;;;;;18.31;80.35;99623.15;112955;1203;107177;-74
2021/09/16 22:45:03;;;;;;;;;;;;;;;;;;;;;
2021/09/16 22:49:23;;;;;;;18.40;16.40;;;;;;;18.18;81.26;99609.69;111898;1218;94052;-75
2021/09/16 22:52:56;;;;;;;;;;;;;;;;;;;;;
2021/09/16 22:57:32;;;;;;;19.00;16.30;;;;;;;18.27;81.25;99597.77;111897;1211;636260;-75
2021/09/16 23:01:50;;;;;;;;;;;;;;;;;;;;;
2021/09/16 23:05:49;;;;;;;17.30;14.90;;;;;;;18.19;81.19;99600.16;112399;1208;94044;-75
2021/09/16 23:18:34;;;;;;;18.20;14.10;;;;;;;18.20;80.88;99587.10;111675;1222;109346;-76
2021/09/16 23:22:23;;;;;;;15.40;13.40;;;;;;;18.18;80.74;99593.89;110963;1226;94440;-75
2021/09/16 23:34:01;;;;;;;16.20;14.50;;;;;;;18.14;80.88;99589.76;111945;1209;635072;-75
2021/09/16 23:38:10;;;;;;;17.50;15.10;;;;;;;18.09;80.75;99590.13;113214;1200;94018;-75
2021/09/16 23:42:20;;;;;;;16.60;14.80;;;;;;;18.05;81.06;99587.79;112902;1203;94252;-75
2021/09/16 23:46:17;;;;;;;;;;;;;;;;;;;;;
2021/09/16 23:50:37;;;;;;;20.70;17.90;;;;;;;18.04;81.24;99582.60;112320;1209;107436;-74
2021/09/16 23:58:42;;;;;;;;;;;;;;;;;;;;;
